createdAt,value
2023-04-07T00:01:01.623Z,9.47
2023-04-07T00:03:29.042Z,10.30
2023-04-07T00:05:56.337Z,11.43
2023-04-07T00:08:23.525Z,10.10
2023-04-07T00:10:50.808Z,11.57
2023-04-07T00:13:17.949Z,10.33
2023-04-07T00:15:45.148Z,11.80
2023-04-07T00:18:12.445Z,10.53
2023-04-07T00:20:39.816Z,10.97
2023-04-07T00:23:07.042Z,12.57
2023-04-07T00:25:34.193Z,9.27
2023-04-07T00:28:01.384Z,10.13
2023-04-07T00:30:28.617Z,9.77
2023-04-07T00:32:55.841Z,9.77
2023-04-07T00:35:23.221Z,11.73
2023-04-07T00:37:50.568Z,9.60
2023-04-07T00:40:18.337Z,11.00
2023-04-07T00:42:45.508Z,8.77
2023-04-07T00:45:12.832Z,8.20
2023-04-07T00:47:40.602Z,8.60
2023-04-07T00:50:08.871Z,8.57
2023-04-07T00:52:36.811Z,11.43
2023-04-07T00:55:04.238Z,9.43
2023-04-07T00:57:34.297Z,8.77
2023-04-07T01:00:01.651Z,9.80
2023-04-07T01:02:43.295Z,8.67
2023-04-07T01:06:08.153Z,8.77
2023-04-07T01:09:18.495Z,12.37
2023-04-07T01:12:47.475Z,8.50
2023-04-07T01:15:17.767Z,11.80
2023-04-07T01:17:52.966Z,8.20
2023-04-07T01:20:23.377Z,9.77
2023-04-07T01:22:57.185Z,6.97
2023-04-07T01:26:27.953Z,8.53
2023-04-07T01:29:34.462Z,8.60
2023-04-07T01:32:06.343Z,9.93
2023-04-07T01:34:35.040Z,7.67
2023-04-07T01:37:03.928Z,8.90
2023-04-07T01:39:32.538Z,9.70
2023-04-07T01:42:02.316Z,14.30
2023-04-07T01:44:30.177Z,10.73
2023-04-07T01:46:57.927Z,8.67
2023-04-07T01:49:27.253Z,13.40
2023-04-07T01:51:56.002Z,9.93
2023-04-07T01:54:23.995Z,9.80
2023-04-07T01:56:51.080Z,10.53
2023-04-07T01:59:20.512Z,9.27
2023-04-07T02:01:48.725Z,9.90
2023-04-07T02:04:40.436Z,12.17
2023-04-07T02:07:25.187Z,12.17
2023-04-07T02:09:56.556Z,13.33
2023-04-07T02:12:27.379Z,9.17
2023-04-07T02:14:56.682Z,9.80
2023-04-07T02:17:27.017Z,9.50
2023-04-07T02:19:56.778Z,9.83
2023-04-07T02:22:23.983Z,11.07
2023-04-07T02:24:51.181Z,11.37
2023-04-07T02:27:18.518Z,10.83
2023-04-07T02:29:45.681Z,10.17
2023-04-07T02:32:13.889Z,9.13
2023-04-07T02:34:41.958Z,10.70
2023-04-07T02:37:11.185Z,10.33
2023-04-07T02:39:38.277Z,9.67
2023-04-07T02:42:05.517Z,10.17
2023-04-07T02:44:32.701Z,9.63
2023-04-07T02:46:59.810Z,10.07
2023-04-07T02:49:27.086Z,10.13
2023-04-07T02:51:54.189Z,10.20
2023-04-07T02:54:21.561Z,11.27
2023-04-07T02:56:48.598Z,11.17
2023-04-07T02:59:15.812Z,9.67
2023-04-07T03:01:42.923Z,9.67
2023-04-07T03:04:10.110Z,10.30
2023-04-07T03:06:37.217Z,16.77
2023-04-07T03:09:04.577Z,11.37
2023-04-07T03:11:31.699Z,11.30
2023-04-07T03:13:58.773Z,11.20
2023-04-07T03:16:25.881Z,11.57
2023-04-07T03:18:53.118Z,11.87
2023-04-07T03:21:20.141Z,10.13
2023-04-07T03:23:47.181Z,11.50
2023-04-07T03:26:14.317Z,9.87
2023-04-07T03:28:41.626Z,12.30
2023-04-07T03:31:08.947Z,8.97
2023-04-07T03:33:36.372Z,10.80
2023-04-07T03:36:03.713Z,10.40
2023-04-07T03:38:30.895Z,9.43
2023-04-07T03:40:57.935Z,11.97
2023-04-07T03:43:25.389Z,12.27
2023-04-07T03:45:54.363Z,9.07
2023-04-07T03:48:21.666Z,10.80
2023-04-07T03:50:48.822Z,12.03
2023-04-07T03:53:16.771Z,9.27
2023-04-07T03:55:44.331Z,12.60
2023-04-07T03:58:11.993Z,11.07
2023-04-07T04:00:39.399Z,11.80
2023-04-07T04:03:06.715Z,10.60
2023-04-07T04:05:33.839Z,11.33
2023-04-07T04:08:00.857Z,10.90
2023-04-07T04:10:27.901Z,12.83
2023-04-07T04:12:55.102Z,11.93
2023-04-07T04:15:22.239Z,10.47
2023-04-07T04:17:49.327Z,9.77
2023-04-07T04:20:16.457Z,11.63
2023-04-07T04:22:43.640Z,12.53
2023-04-07T04:25:10.794Z,10.50
2023-04-07T04:27:37.875Z,14.70
2023-04-07T04:30:06.157Z,10.97
2023-04-07T04:32:35.287Z,16.40
2023-04-07T04:35:02.398Z,12.20
2023-04-07T04:37:29.484Z,15.97
2023-04-07T04:39:59.619Z,12.10
2023-04-07T04:42:27.879Z,12.63
2023-04-07T04:44:55.243Z,12.80
2023-04-07T04:47:22.366Z,12.83
2023-04-07T04:49:49.445Z,13.13
2023-04-07T04:52:16.486Z,13.63
2023-04-07T04:54:43.600Z,13.40
2023-04-07T04:57:10.900Z,15.30
2023-04-07T04:59:38.087Z,13.37
2023-04-07T05:02:06.043Z,12.50
2023-04-07T05:04:33.520Z,13.67
2023-04-07T05:07:01.013Z,11.45
2023-04-07T05:09:28.035Z,12.33
2023-04-07T05:11:55.748Z,11.70
2023-04-07T05:14:22.802Z,12.73
2023-04-07T05:16:49.833Z,14.97
2023-04-07T05:19:16.897Z,14.13
2023-04-07T05:21:43.942Z,13.53
2023-04-07T05:24:10.984Z,16.83
2023-04-07T05:26:38.055Z,12.93
2023-04-07T05:29:05.180Z,14.80
2023-04-07T05:31:33.496Z,12.10
2023-04-07T05:34:00.994Z,13.90
2023-04-07T05:36:28.091Z,12.90
2023-04-07T05:38:55.360Z,14.27
2023-04-07T05:41:22.416Z,13.33
2023-04-07T05:43:49.637Z,13.47
2023-04-07T05:46:16.852Z,15.60
2023-04-07T05:48:44.130Z,12.50
2023-04-07T05:51:11.198Z,13.87
2023-04-07T05:53:38.239Z,11.03
2023-04-07T05:56:05.970Z,14.07
2023-04-07T05:58:33.226Z,15.13
2023-04-07T06:01:00.372Z,17.67
2023-04-07T06:03:27.525Z,16.30
2023-04-07T06:05:54.706Z,15.20
2023-04-07T06:08:21.988Z,18.53
2023-04-07T06:10:51.318Z,12.90
2023-04-07T06:13:18.512Z,14.17
2023-04-07T06:15:45.756Z,12.87
2023-04-07T06:18:12.836Z,18.47
2023-04-07T06:20:40.074Z,16.63
2023-04-07T06:23:10.267Z,13.00
2023-04-07T06:25:37.534Z,16.60
2023-04-07T06:28:04.690Z,16.70
2023-04-07T06:30:31.779Z,16.50
2023-04-07T06:32:59.152Z,14.57
2023-04-07T06:35:27.515Z,14.17
2023-04-07T06:37:54.649Z,13.77
2023-04-07T06:40:21.693Z,14.60
2023-04-07T06:42:48.815Z,14.37
2023-04-07T06:45:15.942Z,13.97
2023-04-07T06:47:43.282Z,12.50
2023-04-07T06:50:10.818Z,13.73
2023-04-07T06:52:37.898Z,12.63
2023-04-07T06:55:07.640Z,14.77
2023-04-07T06:57:34.774Z,14.07
2023-04-07T07:00:01.810Z,11.77
2023-04-07T07:02:28.930Z,12.77
2023-04-07T07:04:58.350Z,11.43
2023-04-07T07:07:25.951Z,11.23
2023-04-07T07:09:54.174Z,12.63
2023-04-07T07:12:21.254Z,9.60
2023-04-07T07:14:48.320Z,11.87
2023-04-07T07:17:15.532Z,12.00
2023-04-07T07:19:43.338Z,8.90
2023-04-07T07:22:10.773Z,11.40
2023-04-07T07:24:38.146Z,13.03
2023-04-07T07:27:05.517Z,12.20
2023-04-07T07:29:32.673Z,10.40
2023-04-07T07:31:59.718Z,12.67
2023-04-07T07:34:26.931Z,11.63
2023-04-07T07:36:54.005Z,11.30
2023-04-07T07:39:23.546Z,10.63
2023-04-07T07:41:51.610Z,9.97
2023-04-07T07:44:20.308Z,9.83
2023-04-07T07:46:48.513Z,9.03
2023-04-07T07:49:18.246Z,9.10
2023-04-07T07:51:46.679Z,15.20
2023-04-07T07:54:14.208Z,11.63
2023-04-07T07:56:41.430Z,9.17
2023-04-07T07:59:08.536Z,11.50
2023-04-07T08:01:35.878Z,11.33
2023-04-07T08:04:03.093Z,13.10
2023-04-07T08:06:31.473Z,13.53
2023-04-07T08:08:59.334Z,10.43
2023-04-07T08:11:26.460Z,10.00
2023-04-07T08:13:54.290Z,12.70
2023-04-07T08:16:22.308Z,8.97
2023-04-07T08:18:50.005Z,8.37
2023-04-07T08:21:17.412Z,9.67
2023-04-07T08:23:44.596Z,9.93
2023-04-07T08:26:11.648Z,8.40
2023-04-07T08:28:40.287Z,9.10
2023-04-07T08:31:08.450Z,7.13
2023-04-07T08:33:35.587Z,9.20
2023-04-07T08:36:02.634Z,7.37
2023-04-07T08:38:29.700Z,8.10
2023-04-07T08:41:10.095Z,8.10
2023-04-07T08:43:38.542Z,9.03
2023-04-07T08:46:09.350Z,7.47
2023-04-07T08:48:40.571Z,9.67
2023-04-07T08:51:10.361Z,6.20
2023-04-07T08:53:53.718Z,6.33
2023-04-07T08:56:21.931Z,7.30
2023-04-07T08:58:49.649Z,8.27
2023-04-07T09:01:18.201Z,7.63
2023-04-07T09:03:47.220Z,6.47
2023-04-07T09:06:14.984Z,7.00
2023-04-07T09:08:42.213Z,6.97
2023-04-07T09:11:09.291Z,5.53
2023-04-07T09:13:36.368Z,8.40
2023-04-07T09:16:03.918Z,8.30
2023-04-07T09:18:31.230Z,6.97
2023-04-07T09:21:02.948Z,13.20
2023-04-07T09:23:33.814Z,7.77
2023-04-07T09:26:22.827Z,5.97
2023-04-07T09:29:00.003Z,5.50
2023-04-07T09:31:48.411Z,7.00
2023-04-07T09:34:39.711Z,7.33
2023-04-07T09:37:11.989Z,8.23
2023-04-07T09:39:54.018Z,4.83
2023-04-07T09:42:22.325Z,5.03
2023-04-07T09:44:49.868Z,5.80
2023-04-07T09:47:18.302Z,6.40
2023-04-07T09:49:54.552Z,6.23
2023-04-07T09:52:52.396Z,8.73
2023-04-07T09:55:26.911Z,5.27
2023-04-07T09:58:15.559Z,5.40
2023-04-07T10:00:43.918Z,9.47
2023-04-07T10:03:15.995Z,5.07
2023-04-07T10:05:44.546Z,5.60
2023-04-07T10:08:14.392Z,4.80
2023-04-07T10:10:43.885Z,5.57
2023-04-07T10:13:14.183Z,5.97
2023-04-07T10:15:41.584Z,8.03
2023-04-07T10:18:09.164Z,6.13
2023-04-07T10:20:43.857Z,7.43
2023-04-07T10:23:22.213Z,7.67
2023-04-07T10:25:52.668Z,8.43
2023-04-07T10:28:24.738Z,7.40
2023-04-07T10:30:53.046Z,8.27
2023-04-07T10:33:49.756Z,11.30
2023-04-07T10:36:22.284Z,11.43
2023-04-07T10:39:11.045Z,11.37
2023-04-07T10:41:39.947Z,12.87
2023-04-07T10:44:31.194Z,12.33
2023-04-07T10:47:06.482Z,17.93
2023-04-07T10:49:35.014Z,17.77
2023-04-07T10:52:15.019Z,20.50
2023-04-07T10:54:43.949Z,18.50
2023-04-07T10:57:16.935Z,20.10
2023-04-07T11:00:09.813Z,23.67
2023-04-07T11:02:40.467Z,23.30
2023-04-07T11:05:25.112Z,18.83
2023-04-07T11:07:58.307Z,16.43
2023-04-07T11:10:26.178Z,15.60
2023-04-07T11:13:07.945Z,16.63
2023-04-07T11:15:40.628Z,13.57
2023-04-07T11:18:17.734Z,12.70
2023-04-07T11:21:00.833Z,11.43
2023-04-07T11:23:28.478Z,10.60
2023-04-07T11:26:03.164Z,10.57
2023-04-07T11:28:31.779Z,12.40
2023-04-07T11:31:00.028Z,14.57
2023-04-07T11:33:32.170Z,10.57
2023-04-07T11:36:02.723Z,15.97
2023-04-07T11:38:38.221Z,14.57
2023-04-07T11:41:15.695Z,14.93
2023-04-07T11:43:43.144Z,13.97
2023-04-07T11:46:16.710Z,13.33
2023-04-07T11:48:47.183Z,15.97
2023-04-07T11:51:20.296Z,14.10
2023-04-07T11:53:48.235Z,13.37
2023-04-07T11:56:17.442Z,13.73
2023-04-07T11:58:55.561Z,15.43
2023-04-07T12:01:26.023Z,13.47
2023-04-07T12:04:04.536Z,11.73
2023-04-07T12:06:38.775Z,12.77
2023-04-07T12:09:06.408Z,8.73
2023-04-07T12:11:34.629Z,11.60
2023-04-07T12:14:05.127Z,9.30
2023-04-07T12:16:32.277Z,7.37
2023-04-07T12:18:59.453Z,12.37
2023-04-07T12:21:27.542Z,9.20
2023-04-07T12:23:54.595Z,6.37
2023-04-07T12:26:23.403Z,9.33
2023-04-07T12:28:50.695Z,7.27
2023-04-07T12:31:17.963Z,6.17
2023-04-07T12:33:45.288Z,7.13
2023-04-07T12:36:12.671Z,5.10
2023-04-07T12:38:39.798Z,7.33
2023-04-07T12:41:06.859Z,6.30
2023-04-07T12:43:34.760Z,8.40
2023-04-07T12:46:01.886Z,4.50
2023-04-07T12:48:29.018Z,8.33
2023-04-07T12:50:56.265Z,8.70
2023-04-07T12:53:23.618Z,5.37
2023-04-07T12:55:53.041Z,8.60
2023-04-07T12:58:20.341Z,6.23
2023-04-07T13:00:47.683Z,5.20
2023-04-07T13:03:17.487Z,6.57
2023-04-07T13:05:44.896Z,4.27
2023-04-07T13:08:12.044Z,5.40
2023-04-07T13:10:39.251Z,7.57
2023-04-07T13:13:07.267Z,5.83
2023-04-07T13:15:34.440Z,5.60
2023-04-07T13:18:01.840Z,7.13
2023-04-07T13:20:30.341Z,5.17
2023-04-07T13:23:07.838Z,5.93
2023-04-07T13:25:39.210Z,5.40
2023-04-07T13:28:06.641Z,6.27
2023-04-07T13:30:33.858Z,6.30
2023-04-07T13:33:02.549Z,7.03
2023-04-07T13:35:30.983Z,7.53
2023-04-07T13:37:58.393Z,7.13
2023-04-07T13:40:25.685Z,5.80
2023-04-07T13:42:52.733Z,5.13
2023-04-07T13:45:20.034Z,4.80
2023-04-07T13:47:47.467Z,7.20
2023-04-07T13:50:14.663Z,5.97
2023-04-07T13:52:41.798Z,7.00
2023-04-07T13:55:09.675Z,5.30
2023-04-07T13:57:36.752Z,5.10
2023-04-07T14:00:04.572Z,7.67
2023-04-07T14:02:32.760Z,4.00
2023-04-07T14:05:00.008Z,5.60
2023-04-07T14:07:27.080Z,3.80
2023-04-07T14:09:54.525Z,3.53
2023-04-07T14:12:22.204Z,6.80
2023-04-07T14:14:52.128Z,4.63
2023-04-07T14:17:22.242Z,5.70
2023-04-07T14:19:49.331Z,5.40
2023-04-07T14:22:16.462Z,5.33
2023-04-07T14:24:43.680Z,6.33
2023-04-07T14:27:11.180Z,5.47
2023-04-07T14:29:38.207Z,9.27
2023-04-07T14:32:05.338Z,7.13
2023-04-07T14:34:32.390Z,7.50
2023-04-07T14:36:59.817Z,8.27
2023-04-07T14:39:27.005Z,7.17
2023-04-07T14:41:54.111Z,11.40
2023-04-07T14:44:21.340Z,9.23
2023-04-07T14:46:48.664Z,7.50
2023-04-07T14:49:21.134Z,6.30
2023-04-07T14:51:48.453Z,6.37
2023-04-07T14:54:15.505Z,4.83
2023-04-07T14:56:42.566Z,4.40
2023-04-07T14:59:09.620Z,5.97
2023-04-07T15:01:37.604Z,4.00
2023-04-07T15:04:04.868Z,5.83
2023-04-07T15:06:32.232Z,6.30
2023-04-07T15:08:59.304Z,6.80
2023-04-07T15:11:27.328Z,6.30
2023-04-07T15:13:54.474Z,4.97
2023-04-07T15:16:21.638Z,5.50
2023-04-07T15:18:48.839Z,6.27
2023-04-07T15:21:16.466Z,9.00
2023-04-07T15:23:43.690Z,7.80
2023-04-07T15:26:11.383Z,8.93
2023-04-07T15:28:42.005Z,8.73
2023-04-07T15:31:09.956Z,9.57
2023-04-07T15:33:39.742Z,8.63
2023-04-07T15:36:08.783Z,12.20
2023-04-07T15:38:36.515Z,6.83
2023-04-07T15:41:03.894Z,11.30
2023-04-07T15:43:31.004Z,6.07
2023-04-07T15:46:00.498Z,7.83
2023-04-07T15:48:30.705Z,7.43
2023-04-07T15:50:57.850Z,6.47
2023-04-07T15:53:26.121Z,6.40
2023-04-07T15:55:53.249Z,6.93
2023-04-07T15:58:23.030Z,8.50
2023-04-07T16:00:50.334Z,8.47
2023-04-07T16:03:19.945Z,6.73
2023-04-07T16:05:47.430Z,8.37
2023-04-07T16:08:14.769Z,6.93
2023-04-07T16:10:42.176Z,7.63
2023-04-07T16:13:10.773Z,12.70
2023-04-07T16:15:40.733Z,9.97
2023-04-07T16:18:12.164Z,8.20
2023-04-07T16:20:39.686Z,10.93
2023-04-07T16:23:06.786Z,14.03
2023-04-07T16:25:33.910Z,13.40
2023-04-07T16:28:01.109Z,19.73
2023-04-07T16:30:37.592Z,15.20
2023-04-07T16:33:04.795Z,11.93
2023-04-07T16:35:32.305Z,11.80
2023-04-07T16:38:04.396Z,10.77
2023-04-07T16:40:35.101Z,15.53
2023-04-07T16:43:02.300Z,12.30
2023-04-07T16:45:32.994Z,14.43
2023-04-07T16:48:00.919Z,13.57
2023-04-07T16:50:28.402Z,9.97
2023-04-07T16:52:58.370Z,11.13
2023-04-07T16:55:28.887Z,11.63
2023-04-07T16:57:56.074Z,12.47
2023-04-07T17:00:23.215Z,9.77
2023-04-07T17:02:50.399Z,10.50
2023-04-07T17:05:18.127Z,10.20
2023-04-07T17:07:47.579Z,8.57
2023-04-07T17:10:14.773Z,9.80
2023-04-07T17:12:41.835Z,11.97
2023-04-07T17:15:09.788Z,9.13
2023-04-07T17:17:38.106Z,15.60
2023-04-07T17:20:06.042Z,12.27
2023-04-07T17:22:34.543Z,11.30
2023-04-07T17:25:01.613Z,14.93
2023-04-07T17:27:28.640Z,9.43
2023-04-07T17:29:55.988Z,11.23
2023-04-07T17:32:23.084Z,13.23
2023-04-07T17:34:50.198Z,9.90
2023-04-07T17:37:17.295Z,8.50
2023-04-07T17:39:44.335Z,8.73
2023-04-07T17:42:11.465Z,5.83
2023-04-07T17:44:38.592Z,7.63
2023-04-07T17:47:05.650Z,9.13
2023-04-07T17:49:32.711Z,15.30
2023-04-07T17:52:02.840Z,6.83
2023-04-07T17:54:30.502Z,8.57
2023-04-07T17:56:57.965Z,6.40
2023-04-07T17:59:25.066Z,9.53
2023-04-07T18:01:52.311Z,7.73
2023-04-07T18:04:19.507Z,7.90
2023-04-07T18:06:46.893Z,11.97
2023-04-07T18:09:17.034Z,7.30
2023-04-07T18:11:47.713Z,8.67
2023-04-07T18:14:14.782Z,11.27
2023-04-07T18:16:41.846Z,8.33
2023-04-07T18:19:08.913Z,9.33
2023-04-07T18:21:36.300Z,6.17
2023-04-07T18:24:03.435Z,8.90
2023-04-07T18:26:30.480Z,7.40
2023-04-07T18:28:57.698Z,7.07
2023-04-07T18:31:24.943Z,6.80
2023-04-07T18:33:52.201Z,6.20
2023-04-07T18:36:19.505Z,5.70
2023-04-07T18:38:46.599Z,5.53
2023-04-07T18:41:14.216Z,6.90
2023-04-07T18:43:42.092Z,7.03
2023-04-07T18:46:09.230Z,6.17
2023-04-07T18:48:36.426Z,6.50
2023-04-07T18:51:03.814Z,6.37
2023-04-07T18:53:31.330Z,9.20
2023-04-07T18:55:59.087Z,9.60
2023-04-07T18:58:26.316Z,7.47
2023-04-07T19:00:54.501Z,8.77
2023-04-07T19:03:22.300Z,15.27
2023-04-07T19:05:52.377Z,13.27
2023-04-07T19:08:19.856Z,9.83
2023-04-07T19:10:48.048Z,11.40
2023-04-07T19:13:17.795Z,7.23
2023-04-07T19:15:46.213Z,12.37
2023-04-07T19:18:13.633Z,11.17
2023-04-07T19:20:41.074Z,10.53
2023-04-07T19:23:08.162Z,17.43
2023-04-07T19:25:35.381Z,10.27
2023-04-07T19:28:03.415Z,15.43
2023-04-07T19:30:30.478Z,10.27
2023-04-07T19:32:57.716Z,11.70
2023-04-07T19:35:25.525Z,14.10
2023-04-07T19:37:53.589Z,16.43
2023-04-07T19:40:20.738Z,10.70
2023-04-07T19:42:47.763Z,14.47
2023-04-07T19:45:14.892Z,13.67
2023-04-07T19:47:43.513Z,8.70
2023-04-07T19:50:11.815Z,11.30
2023-04-07T19:52:38.876Z,11.43
2023-04-07T19:55:07.136Z,13.67
2023-04-07T19:57:35.787Z,16.40
2023-04-07T20:00:04.321Z,10.30
2023-04-07T20:02:33.836Z,14.27
2023-04-07T20:05:00.969Z,15.40
2023-04-07T20:07:28.063Z,11.87
2023-04-07T20:09:57.555Z,15.70
2023-04-07T20:12:24.856Z,19.40
2023-04-07T20:14:51.946Z,15.53
2023-04-07T20:17:19.917Z,21.63
2023-04-07T20:19:47.843Z,12.83
2023-04-07T20:22:14.962Z,14.03
2023-04-07T20:24:42.092Z,18.80
2023-04-07T20:27:09.166Z,16.10
2023-04-07T20:29:36.602Z,12.47
2023-04-07T20:32:03.678Z,19.17
2023-04-07T20:34:30.993Z,12.10
2023-04-07T20:36:58.585Z,16.13
2023-04-07T20:39:25.701Z,15.63
2023-04-07T20:41:52.796Z,16.80
2023-04-07T20:44:19.992Z,17.47
2023-04-07T20:46:48.297Z,13.57
2023-04-07T20:49:15.582Z,12.20
2023-04-07T20:51:42.631Z,15.63
2023-04-07T20:54:09.792Z,15.57
2023-04-07T20:56:36.927Z,18.53
2023-04-07T20:59:04.026Z,16.37
2023-04-07T21:01:31.530Z,17.17
2023-04-07T21:04:00.768Z,15.13
2023-04-07T21:06:27.957Z,18.30
2023-04-07T21:08:55.071Z,17.10
2023-04-07T21:11:22.113Z,14.80
2023-04-07T21:13:49.224Z,13.03
2023-04-07T21:16:16.357Z,13.60
2023-04-07T21:18:43.590Z,13.27
2023-04-07T21:21:11.308Z,15.27
2023-04-07T21:23:38.618Z,18.00
2023-04-07T21:26:05.872Z,15.93
2023-04-07T21:28:32.923Z,14.80
2023-04-07T21:31:01.255Z,11.43
2023-04-07T21:33:28.501Z,12.87
2023-04-07T21:35:55.733Z,15.73
2023-04-07T21:38:22.819Z,14.60
2023-04-07T21:40:49.949Z,14.93
2023-04-07T21:43:17.088Z,18.23
2023-04-07T21:45:46.938Z,15.77
2023-04-07T21:48:16.075Z,14.10
2023-04-07T21:50:43.525Z,15.97
2023-04-07T21:53:10.591Z,9.73
2023-04-07T21:55:37.757Z,14.10
2023-04-07T21:58:07.603Z,12.70
2023-04-07T22:00:34.843Z,16.80
2023-04-07T22:03:02.335Z,14.63
2023-04-07T22:05:29.590Z,11.77
2023-04-07T22:07:59.894Z,13.50
2023-04-07T22:10:27.084Z,11.43
2023-04-07T22:12:54.414Z,15.60
2023-04-07T22:15:22.083Z,15.97
2023-04-07T22:17:49.303Z,11.60
2023-04-07T22:20:16.504Z,14.10
2023-04-07T22:22:44.021Z,14.17
2023-04-07T22:25:11.443Z,15.37
2023-04-07T22:27:38.609Z,11.70
2023-04-07T22:30:09.887Z,12.50
2023-04-07T22:32:37.337Z,16.13
2023-04-07T22:35:04.901Z,11.43
2023-04-07T22:37:31.999Z,14.20
2023-04-07T22:39:59.040Z,16.20
2023-04-07T22:42:29.251Z,19.97
2023-04-07T22:44:56.356Z,14.07
2023-04-07T22:47:23.535Z,15.80
2023-04-07T22:49:50.708Z,16.57
2023-04-07T22:52:17.888Z,18.20
2023-04-07T22:54:44.979Z,17.27
2023-04-07T22:57:12.044Z,15.30
2023-04-07T22:59:39.132Z,15.40
2023-04-07T23:02:06.290Z,16.20
2023-04-07T23:04:33.496Z,17.00
2023-04-07T23:07:00.563Z,18.60
2023-04-07T23:09:27.635Z,18.20
2023-04-07T23:11:54.702Z,21.17
2023-04-07T23:14:21.737Z,20.47
2023-04-07T23:16:48.855Z,25.37
2023-04-07T23:19:16.422Z,26.00
2023-04-07T23:21:44.041Z,23.03
2023-04-07T23:24:11.283Z,22.87
2023-04-07T23:26:38.366Z,25.60
2023-04-07T23:29:05.769Z,24.27
2023-04-07T23:31:32.972Z,26.47
2023-04-07T23:34:00.164Z,31.47
2023-04-07T23:36:27.939Z,31.27
2023-04-07T23:38:58.786Z,28.57
2023-04-07T23:41:25.873Z,27.33
2023-04-07T23:43:52.962Z,29.37
2023-04-07T23:46:20.043Z,39.37
2023-04-07T23:48:47.345Z,27.23
2023-04-07T23:51:14.538Z,34.70
2023-04-07T23:53:44.410Z,30.43
2023-04-07T23:56:11.535Z,30.30
2023-04-07T23:58:38.611Z,32.90
